Time;durP1;ratioP1;P1;durP2;ratioP2;P2;SDS_P1;SDS_P2;PMS_P1;PMS_P2;Temp;Humidity;BMP_temperature;BMP_pressure;BME280_temperature;BME280_humidity;BME280_pressure;Samples;Min_cycle;Max_cycle;Signal;HPM_P1;HPM_P2
2023/11/10 00:00:25;;;;;;;4.33;2.30;;;;;;;5.46;100.00;101909.31;2607139;22;20153;-76
2023/11/10 00:01:25;;;;;;;4.30;1.80;;;;;;;5.50;100.00;101913.72;2606877;22;20501;-76
2023/11/10 00:02:26;;;;;;;5.57;2.37;;;;;;;5.27;100.00;101890.91;2606684;22;20474;-76
2023/11/10 00:03:26;;;;;;;6.67;2.57;;;;;;;5.61;100.00;101911.13;2607266;22;20150;-76
2023/11/10 00:04:27;;;;;;;4.03;2.27;;;;;;;5.63;100.00;101917.88;2605502;22;20160;-76
2023/11/10 00:05:29;;;;;;;3.43;2.13;;;;;;;5.59;100.00;101913.47;2605688;22;20197;-76
2023/11/10 00:06:30;;;;;;;6.50;2.67;;;;;;;5.61;100.00;101917.44;2606959;22;20553;-76
2023/11/10 00:07:32;;;;;;;4.50;2.63;;;;;;;5.60;100.00;101910.34;2606811;22;20146;-76
2023/11/10 00:08:32;;;;;;;4.93;2.53;;;;;;;5.58;100.00;101915.41;2607173;22;20778;-76
2023/11/10 00:09:34;;;;;;;6.17;2.87;;;;;;;5.06;100.00;101827.34;2607469;22;20151;-76
2023/11/10 00:10:35;;;;;;;6.72;3.42;;;;;;;5.64;100.00;101915.91;2607198;22;20153;-76
2023/11/10 00:11:38;;;;;;;3.65;2.10;;;;;;;5.58;100.00;101901.66;2606255;22;20181;-76
2023/11/10 00:12:39;;;;;;;5.47;2.90;;;;;;;5.61;100.00;101903.69;2607064;22;20581;-76
2023/11/10 00:13:39;;;;;;;9.03;2.77;;;;;;;5.66;100.00;101913.59;2607063;22;20296;-76
2023/11/10 00:14:40;;;;;;;6.27;3.27;;;;;;;5.65;100.00;101915.53;2606647;22;20157;-76
2023/11/10 00:15:40;;;;;;;11.57;2.93;;;;;;;4.78;100.00;101782.09;2606953;22;20154;-76
2023/11/10 00:16:44;;;;;;;3.63;2.20;;;;;;;5.26;100.00;101866.53;2606415;22;20617;-76
2023/11/10 00:17:45;;;;;;;6.47;2.67;;;;;;;5.56;100.00;101909.50;2606457;22;20650;-76
2023/11/10 00:18:46;;;;;;;4.07;2.20;;;;;;;5.57;100.00;101902.84;2606290;22;20499;-76
2023/11/10 00:19:46;;;;;;;7.27;2.77;;;;;;;4.77;100.00;101789.53;2606303;22;20590;-76
2023/11/10 00:20:46;;;;;;;3.73;2.20;;;;;;;5.52;100.00;101907.84;2605938;22;20146;-76
2023/11/10 00:21:49;;;;;;;5.00;2.10;;;;;;;5.14;100.00;101859.25;2606745;22;20182;-76
2023/11/10 00:22:50;;;;;;;7.93;2.55;;;;;;;5.37;100.00;101904.06;2607414;22;20498;-76
2023/11/10 00:23:52;;;;;;;3.03;1.57;;;;;;;5.38;100.00;101911.13;2607090;22;20158;-76
2023/11/10 00:24:55;;;;;;;3.78;1.90;;;;;;;5.41;100.00;101906.88;2606406;22;20149;-76
2023/11/10 00:25:56;;;;;;;3.25;1.40;;;;;;;5.39;100.00;101911.94;2607439;22;20153;-76
2023/11/10 00:26:56;;;;;;;4.03;1.63;;;;;;;5.32;100.00;101889.81;2606830;22;20154;-76
2023/11/10 00:27:57;;;;;;;2.63;1.70;;;;;;;5.43;100.00;101918.31;2606985;22;20146;-76
2023/11/10 00:28:57;;;;;;;2.93;1.83;;;;;;;5.42;100.00;101908.44;2606967;22;20142;-76
2023/11/10 00:29:58;;;;;;;4.17;2.20;;;;;;;5.45;100.00;101913.22;2607255;22;20225;-76
2023/11/10 00:30:58;;;;;;;3.03;1.60;;;;;;;5.40;100.00;101903.34;2606498;22;20667;-76
2023/11/10 00:31:59;;;;;;;7.00;2.30;;;;;;;5.46;100.00;101899.13;2606597;22;20150;-76
2023/11/10 00:33:00;;;;;;;3.80;2.07;;;;;;;5.48;100.00;101904.25;2607181;22;20145;-76
2023/11/10 00:34:00;;;;;;;4.47;2.17;;;;;;;5.46;100.00;101903.81;2606689;22;20157;-76
2023/11/10 00:35:01;;;;;;;3.60;1.93;;;;;;;5.48;100.00;101904.25;2606396;22;20173;-76
2023/11/10 00:36:03;;;;;;;2.70;1.90;;;;;;;5.50;100.00;101904.66;2606568;22;20173;-76
2023/11/10 00:37:04;;;;;;;4.38;2.05;;;;;;;5.48;100.00;101902.28;2606997;22;20533;-76
2023/11/10 00:38:05;;;;;;;3.70;2.33;;;;;;;5.51;100.00;101914.50;2606860;22;20149;-76
2023/11/10 00:39:05;;;;;;;3.90;2.27;;;;;;;5.50;100.00;101913.72;2607053;22;20166;-76
2023/11/10 00:40:07;;;;;;;5.17;2.53;;;;;;;5.53;100.00;101912.19;2607075;22;20142;-76
2023/11/10 00:41:07;;;;;;;5.22;2.67;;;;;;;5.56;100.00;101908.69;2606466;22;20147;-76
2023/11/10 00:42:07;;;;;;;5.33;1.87;;;;;;;5.63;100.00;101908.81;2606623;22;20153;-75
2023/11/10 00:43:08;;;;;;;3.77;2.13;;;;;;;4.79;100.00;101772.69;2606211;22;20644;-75
2023/11/10 00:44:10;;;;;;;3.33;1.70;;;;;;;5.60;100.00;101913.09;2605866;22;20221;-75
2023/11/10 00:45:10;;;;;;;4.15;2.50;;;;;;;5.56;100.00;101908.69;2606679;22;20153;-75
2023/11/10 00:46:11;;;;;;;2.83;2.00;;;;;;;5.53;100.00;101909.44;2606755;22;20185;-76
2023/11/10 00:47:12;;;;;;;2.93;1.80;;;;;;;5.52;100.00;101903.16;2607201;22;20151;-75
2023/11/10 00:48:13;;;;;;;3.58;2.08;;;;;;;5.51;100.00;101904.31;2606109;22;20150;-76
2023/11/10 00:49:15;;;;;;;3.10;2.07;;;;;;;5.47;100.00;101900.69;2607390;22;20146;-75
2023/11/10 00:50:15;;;;;;;7.68;2.40;;;;;;;4.50;100.00;101752.19;2606878;22;20150;-75
2023/11/10 00:51:16;;;;;;;3.00;1.90;;;;;;;5.40;100.00;101889.59;2606249;22;20157;-75
2023/11/10 00:52:18;;;;;;;3.73;2.10;;;;;;;4.61;100.00;101769.63;2606667;22;20154;-75
2023/11/10 00:53:21;;;;;;;2.45;1.75;;;;;;;5.34;100.00;101899.28;2607049;22;20177;-75
2023/11/10 00:54:22;;;;;;;4.45;2.30;;;;;;;5.15;100.00;101885.63;2606597;22;20208;-75
2023/11/10 00:55:22;;;;;;;3.70;2.23;;;;;;;5.31;100.00;101888.22;2606593;22;20200;-75
2023/11/10 00:56:23;;;;;;;2.97;1.97;;;;;;;5.26;100.00;101889.34;2605551;22;20154;-75
2023/11/10 00:57:23;;;;;;;6.67;2.70;;;;;;;5.28;100.00;101889.75;2606409;22;20184;-76
2023/11/10 00:58:24;;;;;;;6.70;2.50;;;;;;;5.10;100.00;101876.88;2606906;22;20153;-75
2023/11/10 00:59:24;;;;;;;3.87;2.00;;;;;;;5.22;100.00;101893.16;2606813;22;20257;-75
2023/11/10 01:00:26;;;;;;;4.77;2.53;;;;;;;5.14;100.00;101884.00;2607028;22;20155;-76
2023/11/10 01:01:27;;;;;;;5.53;2.28;;;;;;;5.20;100.00;101892.75;2606246;22;20150;-76
2023/11/10 01:02:27;;;;;;;4.28;2.30;;;;;;;5.16;100.00;101894.63;2606004;22;20201;-75
2023/11/10 01:03:28;;;;;;;4.23;2.50;;;;;;;5.11;100.00;101897.69;2606744;22;20153;-75
2023/11/10 01:04:29;;;;;;;3.70;2.27;;;;;;;5.06;100.00;101884.25;2606693;22;20194;-75
2023/11/10 01:05:29;;;;;;;4.33;2.40;;;;;;;5.12;100.00;101894.56;2606878;22;20150;-75
2023/11/10 01:06:30;;;;;;;4.67;2.33;;;;;;;5.10;100.00;101888.66;2606907;22;20232;-75
2023/11/10 01:07:30;;;;;;;4.87;2.20;;;;;;;5.09;100.00;101887.06;2607024;22;20154;-75
2023/11/10 01:08:30;;;;;;;3.67;1.80;;;;;;;5.01;100.00;101882.59;2606988;22;20161;-75
2023/11/10 01:09:31;;;;;;;5.37;2.23;;;;;;;4.22;100.00;101759.88;2606957;22;20268;-75
2023/11/10 01:10:34;;;;;;;3.30;1.90;;;;;;;4.34;100.00;101787.16;2606977;22;20157;-75
2023/11/10 01:11:35;;;;;;;3.58;2.25;;;;;;;5.02;100.00;101880.66;2605257;22;20164;-75
2023/11/10 01:12:35;;;;;;;3.20;2.00;;;;;;;4.72;100.00;101827.50;2606022;22;20225;-75
2023/11/10 01:13:36;;;;;;;4.43;2.03;;;;;;;4.98;100.00;101866.84;2605992;22;20164;-75
2023/11/10 01:14:36;;;;;;;3.83;2.13;;;;;;;5.07;100.00;101883.09;2605737;22;20161;-75
2023/11/10 01:15:37;;;;;;;5.87;3.07;;;;;;;5.00;100.00;101867.28;2606938;22;20153;-75
2023/11/10 01:16:37;;;;;;;7.50;2.70;;;;;;;4.31;100.00;101760.44;2606149;22;20287;-75
2023/11/10 01:17:39;;;;;;;4.17;2.17;;;;;;;5.03;100.00;101872.03;2606547;22;20594;-75
2023/11/10 01:18:40;;;;;;;6.85;2.70;;;;;;;5.02;100.00;101870.44;2607050;22;20474;-75
2023/11/10 01:19:42;;;;;;;4.13;1.92;;;;;;;5.02;100.00;101872.41;2606987;22;20178;-75
2023/11/10 01:20:42;;;;;;;3.92;2.15;;;;;;;5.03;100.00;101871.25;2605577;22;20189;-75
2023/11/10 01:21:43;;;;;;;3.80;2.07;;;;;;;5.03;100.00;101877.53;2605414;22;20526;-75
2023/11/10 01:22:43;;;;;;;4.80;2.27;;;;;;;5.02;100.00;101873.19;2605849;22;20160;-75
2023/11/10 01:23:43;;;;;;;4.20;2.17;;;;;;;5.04;100.00;101870.88;2605930;22;20237;-75
2023/11/10 01:24:44;;;;;;;3.47;2.10;;;;;;;5.02;100.00;101872.41;2606464;22;20157;-75
2023/11/10 01:25:44;;;;;;;3.53;2.27;;;;;;;4.68;100.00;101807.41;2606484;22;20196;-75
2023/11/10 01:26:45;;;;;;;7.13;2.30;;;;;;;5.02;100.00;101870.44;2606812;22;20186;-75
2023/11/10 01:27:45;;;;;;;4.10;2.20;;;;;;;4.11;100.00;101725.16;2607176;22;20153;-75
2023/11/10 01:28:46;;;;;;;5.67;2.30;;;;;;;4.92;100.00;101849.06;2605959;22;20179;-75
2023/11/10 01:29:47;;;;;;;4.78;2.15;;;;;;;5.02;100.00;101864.94;2605632;22;20150;-75
2023/11/10 01:30:47;;;;;;;4.83;2.13;;;;;;;4.80;100.00;101824.53;2606345;22;20207;-75
2023/11/10 01:31:48;;;;;;;3.60;1.97;;;;;;;4.45;100.00;101768.13;2605372;22;20181;-75
2023/11/10 01:32:48;;;;;;;3.63;2.17;;;;;;;5.07;100.00;101852.88;2606908;22;20150;-75
2023/11/10 01:33:48;;;;;;;3.97;1.63;;;;;;;5.05;100.00;101856.00;2605879;22;20507;-75
2023/11/10 01:34:49;;;;;;;5.53;2.20;;;;;;;4.96;100.00;101832.63;2605863;22;20185;-75
2023/11/10 01:35:53;;;;;;;4.03;2.33;;;;;;;5.05;100.00;101846.94;2606830;22;20151;-75
2023/11/10 01:36:53;;;;;;;3.58;2.03;;;;;;;4.30;100.00;101731.41;2606219;22;20184;-75
2023/11/10 01:37:54;;;;;;;8.23;2.50;;;;;;;4.85;100.00;101824.22;2606676;22;20153;-76
2023/11/10 01:38:56;;;;;;;3.17;1.80;;;;;;;3.92;100.00;101670.31;2606822;22;20606;-76
2023/11/10 01:39:57;;;;;;;7.82;2.20;;;;;;;4.99;100.00;101851.16;2606485;22;20150;-76
2023/11/10 01:40:57;;;;;;;4.95;2.10;;;;;;;4.96;100.00;101849.13;2606200;22;20146;-75
2023/11/10 01:41:58;;;;;;;4.97;1.73;;;;;;;4.96;100.00;101847.19;2606428;22;20228;-75
2023/11/10 01:42:58;;;;;;;4.13;2.27;;;;;;;4.94;100.00;101846.75;2607148;22;20499;-76
2023/11/10 01:43:59;;;;;;;3.67;2.10;;;;;;;4.97;100.00;101842.50;2606801;22;20160;-76
2023/11/10 01:44:59;;;;;;;5.63;1.97;;;;;;;5.01;100.00;101844.13;2606374;22;20169;-76
2023/11/10 01:46:01;;;;;;;7.00;2.17;;;;;;;5.05;100.00;101839.50;2606243;22;20177;-75
2023/11/10 01:47:05;;;;;;;2.70;1.98;;;;;;;5.03;100.00;101835.53;2607045;22;20185;-76
2023/11/10 01:48:07;;;;;;;3.88;1.80;;;;;;;5.06;100.00;101835.59;2606737;22;20149;-76
2023/11/10 01:49:11;;;;;;;3.95;1.92;;;;;;;4.09;100.00;101694.53;2606085;22;20218;-76
2023/11/10 01:50:12;;;;;;;4.18;2.15;;;;;;;5.05;100.00;101836.75;2606059;22;20589;-76
2023/11/10 01:51:12;;;;;;;7.07;3.07;;;;;;;3.86;100.00;101649.81;2606511;22;20158;-76
2023/11/10 01:52:14;;;;;;;4.77;2.07;;;;;;;5.05;100.00;101834.00;2606348;22;20161;-76
2023/11/10 01:53:14;;;;;;;12.13;2.75;;;;;;;4.99;100.00;101838.22;2606978;22;20157;-75
2023/11/10 01:54:21;;;;;;;4.20;1.90;;;;;;;4.98;100.00;101835.84;2606415;22;20236;-76
2023/11/10 01:55:21;;;;;;;5.75;2.30;;;;;;;4.82;100.00;101824.94;2606703;22;20152;-76
2023/11/10 01:56:23;;;;;;;4.83;2.20;;;;;;;4.92;100.00;101843.56;2606306;22;20172;-76
2023/11/10 01:57:24;;;;;;;4.03;2.10;;;;;;;4.94;100.00;101845.97;2606994;22;20238;-76
2023/11/10 01:58:25;;;;;;;2.30;1.43;;;;;;;4.96;100.00;101849.94;2606982;22;20160;-76
2023/11/10 01:59:26;;;;;;;2.80;1.97;;;;;;;4.89;100.00;101841.56;2606605;22;20234;-76
2023/11/10 02:00:30;;;;;;;7.97;2.72;;;;;;;4.93;100.00;101852.63;2606386;22;20149;-76
2023/11/10 02:01:32;;;;;;;7.90;2.67;;;;;;;4.90;100.00;101847.84;2606261;22;20160;-76
2023/11/10 02:02:33;;;;;;;7.18;2.58;;;;;;;4.90;100.00;101850.59;2606562;22;20159;-75
2023/11/10 02:03:33;;;;;;;3.73;2.30;;;;;;;4.81;100.00;101844.53;2606752;22;20159;-76
2023/11/10 02:04:36;;;;;;;4.13;2.30;;;;;;;4.86;100.00;101853.28;2606122;22;20509;-76
2023/11/10 02:05:36;;;;;;;4.03;2.25;;;;;;;4.86;100.00;101853.28;2606836;22;20207;-76
2023/11/10 02:06:42;;;;;;;5.07;2.20;;;;;;;4.79;100.00;101850.41;2606625;22;20252;-76
2023/11/10 02:07:42;;;;;;;3.95;1.75;;;;;;;4.76;100.00;101851.13;2606823;22;20559;-75
2023/11/10 02:08:44;;;;;;;3.93;2.00;;;;;;;4.55;100.00;101830.69;2606843;22;20157;-75
2023/11/10 02:09:44;;;;;;;4.65;2.00;;;;;;;4.67;100.00;101853.28;2607165;22;20308;-76
2023/11/10 02:10:45;;;;;;;6.77;2.90;;;;;;;4.68;100.00;101860.38;2606365;22;20205;-76
2023/11/10 02:11:45;;;;;;;6.97;2.50;;;;;;;4.68;100.00;101854.91;2606507;22;20672;-75
2023/11/10 02:12:54;;;;;;;3.63;2.20;;;;;;;3.96;100.00;101765.19;2606728;22;20631;-76
2023/11/10 02:14:02;;;;;;;2.40;1.55;;;;;;;4.71;100.00;101861.59;2606712;22;20130;-76
2023/11/10 02:15:06;;;;;;;7.20;2.47;;;;;;;4.74;100.00;101861.69;2605925;22;20152;-76
2023/11/10 02:16:07;;;;;;;5.18;2.50;;;;;;;4.74;100.00;101861.69;2606430;22;20148;-76
2023/11/10 02:17:08;;;;;;;4.97;2.13;;;;;;;4.75;100.00;101863.25;2607055;22;20160;-76
2023/11/10 02:18:08;;;;;;;9.83;2.97;;;;;;;4.74;100.00;101864.44;2606974;22;20485;-76
2023/11/10 02:19:15;;;;;;;3.70;1.90;;;;;;;4.76;100.00;101864.84;2606919;22;20150;-75
2023/11/10 02:20:16;;;;;;;5.10;2.72;;;;;;;4.74;100.00;101864.44;2606952;22;20137;-75
2023/11/10 02:21:16;;;;;;;3.30;2.20;;;;;;;4.76;100.00;101862.09;2606056;22;20150;-75
2023/11/10 02:22:17;;;;;;;4.47;2.37;;;;;;;4.73;100.00;101865.56;2606274;22;20163;-76
2023/11/10 02:23:19;;;;;;;6.60;2.67;;;;;;;4.73;100.00;101853.81;2606768;22;20146;-76
2023/11/10 02:24:24;;;;;;;6.93;2.92;;;;;;;4.62;100.00;101858.28;2606332;22;20233;-76
2023/11/10 02:25:25;;;;;;;8.38;2.60;;;;;;;4.60;100.00;101864.13;2606338;22;20214;-76
2023/11/10 02:26:25;;;;;;;11.07;2.23;;;;;;;4.49;100.00;101863.13;2606312;22;20240;-76
2023/11/10 02:27:26;;;;;;;3.83;1.83;;;;;;;4.51;100.00;101871.03;2606808;22;20160;-76
2023/11/10 02:28:26;;;;;;;4.43;2.23;;;;;;;4.54;100.00;101860.09;2606541;22;20154;-76
2023/11/10 02:29:27;;;;;;;3.53;1.97;;;;;;;4.53;100.00;101861.25;2606954;22;20226;-75
2023/11/10 02:30:28;;;;;;;4.80;2.20;;;;;;;4.52;100.00;101867.13;2606926;22;20168;-76
2023/11/10 02:31:29;;;;;;;7.10;2.55;;;;;;;4.32;100.00;101838.06;2606143;22;20150;-76
2023/11/10 02:32:29;;;;;;;3.33;2.07;;;;;;;4.41;100.00;101861.38;2606186;22;20156;-75
2023/11/10 02:33:30;;;;;;;3.17;1.97;;;;;;;4.37;100.00;101855.03;2605801;22;20524;-74
2023/11/10 02:34:30;;;;;;;4.47;1.63;;;;;;;3.97;100.00;101796.97;2605356;22;20153;-74
2023/11/10 02:35:31;;;;;;;5.17;2.27;;;;;;;4.45;100.00;101867.75;2606679;22;20233;-74
2023/11/10 02:36:32;;;;;;;3.43;1.87;;;;;;;4.37;100.00;101860.50;2605916;22;20145;-74
2023/11/10 02:37:33;;;;;;;4.13;2.40;;;;;;;4.41;100.00;101858.66;2606723;22;20154;-74
2023/11/10 02:38:37;;;;;;;4.47;2.20;;;;;;;4.43;100.00;101861.03;2606696;22;20174;-74
2023/11/10 02:39:38;;;;;;;3.22;1.83;;;;;;;4.43;100.00;101869.28;2606631;22;20158;-74
2023/11/10 02:40:38;;;;;;;6.27;2.43;;;;;;;4.44;100.00;101859.88;2606826;22;20181;-75
2023/11/10 02:41:39;;;;;;;3.00;2.10;;;;;;;4.44;100.00;101860.69;2606301;22;20231;-75
2023/11/10 02:42:39;;;;;;;3.77;2.40;;;;;;;4.46;100.00;101858.34;2606029;22;20544;-75
2023/11/10 02:43:40;;;;;;;3.10;1.80;;;;;;;4.49;100.00;101857.66;2606202;22;20632;-75
2023/11/10 02:44:40;;;;;;;3.47;2.00;;;;;;;4.51;100.00;101851.81;2606256;22;20187;-75
2023/11/10 02:45:41;;;;;;;4.10;2.60;;;;;;;4.54;100.00;101856.56;2606631;22;20557;-74
2023/11/10 02:46:41;;;;;;;3.73;2.30;;;;;;;4.53;100.00;101853.03;2606512;22;20269;-75
2023/11/10 02:47:42;;;;;;;4.77;2.63;;;;;;;4.56;100.00;101854.25;2606658;22;20499;-74
2023/11/10 02:48:43;;;;;;;5.90;3.30;;;;;;;4.55;100.00;101847.97;2606638;22;20231;-74
2023/11/10 02:49:43;;;;;;;2.93;1.97;;;;;;;4.56;100.00;101857.78;2606795;22;20652;-74
2023/11/10 02:50:46;;;;;;;4.53;2.73;;;;;;;4.60;100.00;101855.91;2605622;22;20199;-75
2023/11/10 02:51:47;;;;;;;4.50;2.17;;;;;;;4.55;100.00;101841.66;2606116;22;20156;-75
2023/11/10 02:52:47;;;;;;;7.17;3.17;;;;;;;4.65;100.00;101860.31;2607591;22;20180;-75
2023/11/10 02:53:48;;;;;;;5.40;2.83;;;;;;;4.62;100.00;101853.56;2607336;22;20152;-75
2023/11/10 02:54:48;;;;;;;4.63;2.40;;;;;;;4.67;100.00;101847.03;2607113;22;20175;-75
2023/11/10 02:55:49;;;;;;;4.60;2.80;;;;;;;4.76;100.00;101855.81;2607225;22;20154;-74
2023/11/10 02:56:49;;;;;;;7.20;3.47;;;;;;;4.80;100.00;101854.72;2607200;22;20201;-75
2023/11/10 02:57:50;;;;;;;3.97;2.40;;;;;;;4.66;100.00;101834.44;2607278;22;20161;-74
2023/11/10 02:58:51;;;;;;;4.00;2.17;;;;;;;4.53;100.00;101813.78;2607684;22;20160;-74
2023/11/10 02:59:52;;;;;;;6.13;3.50;;;;;;;4.81;100.00;101848.06;2607680;22;20184;-75
2023/11/10 03:00:55;;;;;;;4.83;2.83;;;;;;;4.83;100.00;101848.50;2606711;22;20626;-75
2023/11/10 03:01:56;;;;;;;5.30;2.53;;;;;;;4.83;100.00;101842.22;2606228;22;20154;-74
2023/11/10 03:02:56;;;;;;;4.27;3.00;;;;;;;4.84;100.00;101832.81;2606809;22;20668;-74
2023/11/10 03:03:57;;;;;;;5.93;2.53;;;;;;;4.83;100.00;101834.00;2606217;22;20547;-75
2023/11/10 03:04:57;;;;;;;5.27;2.57;;;;;;;4.76;100.00;101829.16;2606107;22;20149;-74
2023/11/10 03:05:58;;;;;;;8.47;3.07;;;;;;;4.85;100.00;101832.47;2607730;22;20195;-74
2023/11/10 03:06:58;;;;;;;11.07;3.73;;;;;;;4.81;100.00;101837.09;2607531;22;20145;-75
2023/11/10 03:07:59;;;;;;;3.20;2.07;;;;;;;4.86;100.00;101838.72;2607574;22;20142;-75
2023/11/10 03:09:01;;;;;;;6.47;3.33;;;;;;;4.90;100.00;101840.41;2607475;22;20502;-74
2023/11/10 03:10:01;;;;;;;4.50;2.83;;;;;;;4.96;100.00;101827.94;2607529;22;20148;-74
2023/11/10 03:11:03;;;;;;;6.70;3.10;;;;;;;4.98;100.00;101828.38;2607106;22;20508;-75
2023/11/10 03:12:03;;;;;;;6.25;2.60;;;;;;;5.00;100.00;101839.81;2606381;22;20148;-75
2023/11/10 03:13:04;;;;;;;7.57;3.63;;;;;;;4.90;100.00;101803.88;2607336;22;20199;-75
2023/11/10 03:14:04;;;;;;;5.63;3.17;;;;;;;4.64;100.00;101757.94;2607302;22;20153;-75
2023/11/10 03:15:05;;;;;;;9.63;2.73;;;;;;;5.10;100.00;101824.66;2607021;22;20147;-74
2023/11/10 03:16:07;;;;;;;9.98;3.72;;;;;;;4.96;100.00;101796.94;2606097;22;20178;-75
2023/11/10 03:17:08;;;;;;;10.45;3.92;;;;;;;5.10;100.00;101813.66;2606680;22;20142;-75
2023/11/10 03:18:09;;;;;;;4.82;3.00;;;;;;;5.16;100.00;101812.19;2606418;22;20163;-74
2023/11/10 03:19:09;;;;;;;10.60;3.23;;;;;;;5.15;100.00;101819.66;2606423;22;20277;-75
2023/11/10 03:20:12;;;;;;;7.93;3.90;;;;;;;5.20;100.00;101804.81;2607329;22;20382;-75
2023/11/10 03:21:17;;;;;;;11.48;3.60;;;;;;;5.21;100.00;101811.88;2606660;22;20161;-75
2023/11/10 03:22:17;;;;;;;9.73;2.88;;;;;;;5.23;100.00;101809.59;2607235;22;20154;-75
2023/11/10 03:23:18;;;;;;;7.07;3.77;;;;;;;5.22;100.00;101799.72;2607552;22;20149;-74
2023/11/10 03:24:18;;;;;;;7.43;2.87;;;;;;;5.26;100.00;101804.13;2606942;22;20158;-75
2023/11/10 03:25:19;;;;;;;4.70;2.83;;;;;;;5.33;100.00;101815.25;2606830;22;20551;-74
2023/11/10 03:26:19;;;;;;;5.53;3.10;;;;;;;5.38;100.00;101822.41;2606320;22;20154;-75
2023/11/10 03:27:20;;;;;;;7.10;2.60;;;;;;;5.39;100.00;101827.50;2607419;22;20147;-74
2023/11/10 03:28:20;;;;;;;9.87;3.10;;;;;;;5.41;100.00;101827.13;2607376;22;20233;-74
2023/11/10 03:29:20;;;;;;;8.23;3.43;;;;;;;5.39;100.00;101815.72;2607749;22;20168;-74
2023/11/10 03:30:21;;;;;;;6.03;3.33;;;;;;;5.38;100.00;101808.66;2607675;22;20158;-74
2023/11/10 03:31:21;;;;;;;6.37;2.80;;;;;;;5.48;100.00;101819.03;2606679;22;20235;-74
2023/11/10 03:32:23;;;;;;;4.27;2.60;;;;;;;5.47;100.00;101811.91;2606612;22;20154;-75
2023/11/10 03:33:24;;;;;;;9.80;3.72;;;;;;;5.46;100.00;101818.59;2607387;22;20154;-75
2023/11/10 03:34:24;;;;;;;8.90;3.03;;;;;;;5.49;100.00;101815.88;2606610;22;20604;-74
2023/11/10 03:35:25;;;;;;;8.67;3.43;;;;;;;5.42;100.00;101810.28;2606845;22;20154;-75
2023/11/10 03:36:25;;;;;;;8.00;3.17;;;;;;;5.46;100.00;101813.88;2606877;22;20188;-75
2023/11/10 03:37:26;;;;;;;4.67;2.67;;;;;;;5.51;100.00;101801.78;2607591;22;20612;-75
2023/11/10 03:38:26;;;;;;;10.73;3.57;;;;;;;5.44;100.00;101785.19;2607466;22;20217;-74
2023/11/10 03:39:26;;;;;;;6.93;2.80;;;;;;;5.52;100.00;101797.84;2607195;22;20156;-74
2023/11/10 03:40:28;;;;;;;6.47;3.40;;;;;;;5.53;100.00;101802.22;2606424;22;20146;-75
2023/11/10 03:41:29;;;;;;;6.88;3.45;;;;;;;5.53;100.00;101802.22;2606579;22;20150;-75
2023/11/10 03:42:30;;;;;;;5.47;3.20;;;;;;;5.55;100.00;101806.16;2606829;22;20156;-74
2023/11/10 03:43:31;;;;;;;5.47;3.53;;;;;;;5.50;100.00;101794.69;2607233;22;20147;-74
2023/11/10 03:44:32;;;;;;;5.22;2.88;;;;;;;5.56;100.00;101807.75;2606693;22;20155;-74
2023/11/10 03:45:32;;;;;;;5.00;2.67;;;;;;;5.45;100.00;101806.00;2607624;22;20153;-74
2023/11/10 03:46:33;;;;;;;5.23;2.77;;;;;;;5.41;100.00;101800.47;2607136;22;20232;-74
2023/11/10 03:47:33;;;;;;;10.30;3.80;;;;;;;5.47;100.00;101800.91;2607267;22;20158;-75
2023/11/10 03:48:34;;;;;;;6.43;2.90;;;;;;;5.40;100.00;101809.06;2606329;22;20210;-74
2023/11/10 03:49:35;;;;;;;6.90;3.50;;;;;;;5.45;100.00;101808.75;2606331;22;20218;-74
2023/11/10 03:50:35;;;;;;;8.27;2.63;;;;;;;5.49;100.00;101799.38;2607454;22;20208;-74
2023/11/10 03:51:36;;;;;;;4.63;2.20;;;;;;;5.54;100.00;101810.06;2606617;22;20175;-74
2023/11/10 03:52:36;;;;;;;5.77;3.10;;;;;;;5.56;100.00;101817.97;2607187;22;20146;-74
2023/11/10 03:53:37;;;;;;;3.97;2.43;;;;;;;5.06;100.00;101741.38;2607073;22;20503;-74
2023/11/10 03:54:37;;;;;;;6.00;2.70;;;;;;;5.53;100.00;101811.25;2605895;22;20601;-74
2023/11/10 03:55:38;;;;;;;5.30;3.03;;;;;;;5.59;100.00;101815.25;2606566;22;20155;-74
2023/11/10 03:56:39;;;;;;;8.87;3.40;;;;;;;5.52;100.00;101814.34;2606931;22;20229;-74
2023/11/10 03:57:40;;;;;;;6.70;3.63;;;;;;;5.54;100.00;101821.06;2607215;22;20158;-74
2023/11/10 03:58:41;;;;;;;3.73;2.70;;;;;;;4.83;100.00;101722.16;2607337;22;20187;-74
2023/11/10 03:59:41;;;;;;;5.18;2.75;;;;;;;5.51;100.00;101813.56;2607311;22;20162;-74
2023/11/10 04:00:42;;;;;;;4.57;2.53;;;;;;;5.47;100.00;101814.66;2607123;22;20234;-74
2023/11/10 04:01:42;;;;;;;5.17;2.30;;;;;;;5.15;100.00;101758.41;2606747;22;20146;-74
2023/11/10 04:02:44;;;;;;;4.13;2.43;;;;;;;5.43;100.00;101808.34;2606867;22;20588;-74
2023/11/10 04:03:45;;;;;;;4.50;2.78;;;;;;;5.34;100.00;101794.81;2606897;22;20604;-74
2023/11/10 04:04:46;;;;;;;8.13;2.90;;;;;;;5.27;100.00;101802.16;2606868;22;20501;-75
2023/11/10 04:05:47;;;;;;;4.43;2.37;;;;;;;5.09;100.00;101763.44;2607104;22;20150;-74
2023/11/10 04:06:49;;;;;;;5.97;2.97;;;;;;;4.65;100.00;101723.81;2607153;22;20177;-75
2023/11/10 04:07:50;;;;;;;6.13;3.13;;;;;;;5.11;100.00;101787.78;2607593;22;20576;-74
2023/11/10 04:08:50;;;;;;;5.50;2.80;;;;;;;5.06;100.00;101790.81;2606626;22;20154;-74
2023/11/10 04:09:51;;;;;;;3.83;2.47;;;;;;;3.92;100.00;101615.47;2607024;22;20157;-74
2023/11/10 04:10:52;;;;;;;7.67;3.37;;;;;;;5.01;100.00;101783.69;2606650;22;20154;-74
2023/11/10 04:11:52;;;;;;;6.90;3.67;;;;;;;5.01;100.00;101788.38;2606888;22;20233;-74
2023/11/10 04:12:53;;;;;;;11.23;4.33;;;;;;;5.01;100.00;101794.69;2607040;22;20153;-74
2023/11/10 04:13:53;;;;;;;8.00;3.67;;;;;;;4.38;100.00;101693.91;2606876;22;20154;-75
2023/11/10 04:14:54;;;;;;;10.13;3.63;;;;;;;5.03;100.00;101788.81;2606601;22;20153;-74
2023/11/10 04:15:56;;;;;;;6.97;2.60;;;;;;;5.03;100.00;101797.06;2607519;22;20148;-74
2023/11/10 04:16:56;;;;;;;15.00;4.15;;;;;;;5.03;100.00;101794.31;2606926;22;20203;-74
2023/11/10 04:18:00;;;;;;;5.50;2.77;;;;;;;4.97;100.00;101787.56;2607321;22;20176;-74
2023/11/10 04:19:00;;;;;;;5.82;3.42;;;;;;;4.93;100.00;101787.47;2607078;22;20146;-74
2023/11/10 04:20:01;;;;;;;4.93;2.87;;;;;;;4.88;100.00;101781.50;2607067;22;20663;-74
2023/11/10 04:21:01;;;;;;;6.73;4.27;;;;;;;4.90;100.00;101787.41;2606474;22;20155;-74
2023/11/10 04:22:01;;;;;;;6.60;3.77;;;;;;;4.84;100.00;101788.88;2606806;22;20507;-75
2023/11/10 04:23:02;;;;;;;7.40;3.90;;;;;;;4.85;100.00;101787.72;2606199;22;20169;-74
2023/11/10 04:24:04;;;;;;;5.60;3.20;;;;;;;4.75;100.00;101775.38;2605735;22;20154;-74
2023/11/10 04:25:04;;;;;;;5.85;3.47;;;;;;;4.97;100.00;101799.31;2606417;22;20148;-74
2023/11/10 04:26:06;;;;;;;11.10;3.83;;;;;;;5.02;100.00;101787.25;2607115;22;20130;-74
2023/11/10 04:27:06;;;;;;;5.90;3.25;;;;;;;4.06;100.00;101632.19;2607285;22;20180;-74
2023/11/10 04:28:11;;;;;;;7.77;3.33;;;;;;;5.04;100.00;101777.47;2607018;22;20143;-75
2023/11/10 04:29:11;;;;;;;9.30;4.80;;;;;;;5.05;100.00;101775.50;2606625;22;20154;-74
2023/11/10 04:30:12;;;;;;;7.67;4.10;;;;;;;4.54;100.00;101687.16;2607307;22;20153;-75
2023/11/10 04:31:14;;;;;;;6.63;3.33;;;;;;;5.12;100.00;101775.66;2606785;22;20635;-74
2023/11/10 04:32:14;;;;;;;7.47;3.22;;;;;;;5.13;100.00;101769.75;2606661;22;20556;-74
2023/11/10 04:33:15;;;;;;;8.77;3.33;;;;;;;5.27;100.00;101789.22;2607411;22;20189;-74
2023/11/10 04:34:15;;;;;;;8.67;4.30;;;;;;;5.25;100.00;101779.75;2606469;22;20496;-75
2023/11/10 04:35:16;;;;;;;5.37;3.10;;;;;;;5.38;100.00;101798.44;2606491;22;20581;-74
2023/11/10 04:36:16;;;;;;;7.53;4.33;;;;;;;5.41;100.00;101789.47;2606662;22;20185;-74
2023/11/10 04:37:18;;;;;;;8.13;3.10;;;;;;;5.43;100.00;101789.09;2606328;22;20172;-74
2023/11/10 04:38:18;;;;;;;7.05;3.00;;;;;;;5.39;100.00;101782.75;2607047;22;20154;-74
2023/11/10 04:39:19;;;;;;;7.37;3.23;;;;;;;5.35;100.00;101787.38;2607364;22;20208;-74
2023/11/10 04:40:19;;;;;;;10.03;3.63;;;;;;;5.28;100.00;101787.28;2607079;22;20592;-74
2023/11/10 04:41:24;;;;;;;8.63;3.43;;;;;;;5.27;100.00;101789.22;2606360;22;20151;-74
2023/11/10 04:42:24;;;;;;;6.65;4.18;;;;;;;5.30;100.00;101791.25;2606750;22;20313;-74
2023/11/10 04:43:25;;;;;;;7.23;3.60;;;;;;;5.37;100.00;101801.53;2607253;22;20211;-74